Stamford, VT (05352)

4:34 AM EST on December 25, 2014 (GMT -0500)
Route 8 - 0.6 mile south of Vermont border | Change Station
CLOSE
Current Station
Personal Weather Station
Location: Clarksburg, MA
Elevation: 1090 ft
Nearby Weather Stations

Elev 1090 ft 42.73 °N, 73.07 °W | Updated 1 minute ago

Overcast
Overcast
44.8 °F
Feels Like 45 °F
N
0.0
Wind Variable Wind from North
Gusts 0.0 mph

Today
High -- | Low -- °F
--% Chance of Precip.
Yesterday
High -- | Low -- °F
Precip. -- in
7:21 AM 4:23 PM
Waxing Crescent, 15% visible
Pressure 29.42 in
Visibility 10.0 miles
Clouds Mostly Cloudy 2900 ft
Mostly Cloudy 4300 ft
Overcast 12000 ft
Windchill 45 °F
Dew Point 43 °F
Humidity 93%
Rainfall -999.00 in
Snow Depth Not available.
UV 0 out of 12
Pollen .10 out of 12
Air Quality Not available.
Flu Activity Not available.
SPECI KAQW 250923Z AUTO 27007KT 10SM BKN029 BKN043 OVC120 16/12 A2942 RMK AO2 RAB10E19 P0000 T01610122

More Conditions Fewer Conditions

Pressure 29.42 in
Visibility 10.0 miles
Clouds Mostly Cloudy 2900 ft
Mostly Cloudy 4300 ft
Overcast 12000 ft
Windchill 45 °F
Dew Point 43 °F
Humidity 93%
Rainfall -999.00 in
Snow Depth Not available.
UV 0 out of 12
Pollen .10 out of 12
Air Quality Not available.
Flu Activity Not available.
SPECI KAQW 250923Z AUTO 27007KT 10SM BKN029 BKN043 OVC120 16/12 A2942 RMK AO2 RAB10E19 P0000 T01610122

More Conditions Fewer Conditions

10-Day Weather Forecast

Almanac

Astronomy

Dec. 25, 2014 Rise Set
Actual Time
Civil Twilight
Nautical Twilight
Astronomical Twilight
Moon
Length of Visible Light
Length of Day
Tomorrow will be .
, % of the Moon is Illuminated

Today's Extremes

State Highs State Lows

Community

WunderPhotos

Upload Photos

1,780,251 photos uploaded!

WunderBlogs® & News

Nearby

Air Quality

  Air Quality AQ Index Pollutant
Not available.

Snow Depth

Station Depth Elevation

Earthquake Activity

City Distance Mag. Time & Date
Minimum magnitude displayed is 2.5.

Coastal Water Temperatures

Place Temperature

Nearby Weather Stations